createdAt,value
2023-05-04T00:00:56.530Z,101375.00
2023-05-04T00:06:06.692Z,101372.40
2023-05-04T00:11:17.761Z,101366.00
2023-05-04T00:16:27.595Z,101368.60
2023-05-04T00:21:37.539Z,101365.80
2023-05-04T00:26:47.758Z,101364.00
2023-05-04T00:31:57.369Z,101372.00
2023-05-04T00:37:08.218Z,101370.40
2023-05-04T00:42:18.771Z,101373.80
2023-05-04T00:47:30.165Z,101371.20
2023-05-04T00:52:41.614Z,101368.40
2023-05-04T00:57:52.216Z,101356.40
2023-05-04T01:03:02.008Z,101360.40
2023-05-04T01:08:20.078Z,101357.00
2023-05-04T01:13:34.231Z,101358.20
2023-05-04T01:18:44.125Z,101351.00
2023-05-04T01:23:53.805Z,101344.20
2023-05-04T01:29:10.688Z,101349.40
2023-05-04T01:34:22.071Z,101343.00
2023-05-04T01:39:31.792Z,101340.00
2023-05-04T01:44:41.840Z,101341.20
2023-05-04T01:49:51.884Z,101333.60
2023-05-04T01:55:01.825Z,101339.00
2023-05-04T02:00:14.521Z,101344.40
2023-05-04T02:05:24.147Z,101343.80
2023-05-04T02:10:34.086Z,101350.00
2023-05-04T02:15:43.815Z,101344.20
2023-05-04T02:20:53.544Z,101345.00
2023-05-04T02:26:03.284Z,101351.80
2023-05-04T02:31:13.118Z,101348.20
2023-05-04T02:36:22.923Z,101347.40
2023-05-04T02:41:32.873Z,101354.20
2023-05-04T02:46:42.760Z,101344.40
2023-05-04T02:51:52.642Z,101353.20
2023-05-04T02:57:02.668Z,101353.40
2023-05-04T03:02:12.968Z,101341.60
2023-05-04T03:07:22.718Z,101330.80
2023-05-04T03:12:32.423Z,101335.20
2023-05-04T03:17:42.346Z,101332.40
2023-05-04T03:22:52.039Z,101335.40
2023-05-04T03:28:02.199Z,101340.20
2023-05-04T03:33:12.677Z,101338.80
2023-05-04T03:38:22.754Z,101336.60
2023-05-04T03:43:32.596Z,101335.60
2023-05-04T03:48:42.514Z,101337.60
2023-05-04T03:53:52.750Z,101332.00
2023-05-04T03:59:03.336Z,101324.80
2023-05-04T04:04:13.143Z,101330.60
2023-05-04T04:09:22.934Z,101339.20
2023-05-04T04:14:32.876Z,101343.40
2023-05-04T04:19:42.867Z,101335.60
2023-05-04T04:24:52.592Z,101337.80
2023-05-04T04:30:02.429Z,101339.80
2023-05-04T04:35:14.404Z,101334.80
2023-05-04T04:40:24.221Z,101345.00
2023-05-04T04:45:34.350Z,101336.60
2023-05-04T04:50:45.586Z,101332.00
2023-05-04T04:55:55.626Z,101341.00
2023-05-04T05:01:06.558Z,101344.00
2023-05-04T05:06:17.046Z,101338.00
2023-05-04T05:11:26.990Z,101332.20
2023-05-04T05:16:36.739Z,101329.80
2023-05-04T05:21:46.816Z,101347.80
2023-05-04T05:26:56.664Z,101349.20
2023-05-04T05:32:06.923Z,101346.60
2023-05-04T05:37:16.827Z,101352.20
2023-05-04T05:42:26.545Z,101348.00
2023-05-04T05:47:37.135Z,101344.80
2023-05-04T05:52:47.271Z,101354.00
2023-05-04T05:57:57.295Z,101353.20
2023-05-04T06:03:08.098Z,101352.40
2023-05-04T06:08:18.776Z,101351.20
2023-05-04T06:13:28.881Z,101353.80
2023-05-04T06:18:38.668Z,101369.00
2023-05-04T06:23:49.372Z,101370.80
2023-05-04T06:28:59.289Z,101369.60
2023-05-04T06:34:09.336Z,101370.20
2023-05-04T06:39:19.701Z,101368.00
2023-05-04T06:44:29.524Z,101359.20
2023-05-04T06:49:40.068Z,101365.60
2023-05-04T06:54:49.975Z,101366.60
2023-05-04T06:59:59.784Z,101368.20
2023-05-04T07:05:11.427Z,101364.00
2023-05-04T07:10:22.296Z,101368.60
2023-05-04T07:15:34.407Z,101368.40
2023-05-04T07:20:45.491Z,101368.20
2023-05-04T07:25:55.286Z,101368.40
2023-05-04T07:31:05.952Z,101368.60
2023-05-04T07:36:16.135Z,101372.00
2023-05-04T07:41:26.654Z,101370.40
2023-05-04T07:46:36.769Z,101359.60
2023-05-04T07:51:46.843Z,101353.80
2023-05-04T07:56:56.764Z,101365.40
2023-05-04T08:02:08.227Z,101364.40
2023-05-04T08:07:19.539Z,101362.00
2023-05-04T08:12:29.475Z,101364.00
2023-05-04T08:17:41.039Z,101365.00
2023-05-04T08:22:51.035Z,101356.20
2023-05-04T08:28:00.870Z,101370.60
2023-05-04T08:33:10.986Z,101363.80
2023-05-04T08:38:21.151Z,101367.40
2023-05-04T08:43:35.798Z,101375.80
2023-05-04T08:48:46.682Z,101364.80
2023-05-04T08:53:58.032Z,101362.20
2023-05-04T08:59:10.338Z,101359.80
2023-05-04T09:04:22.619Z,101353.80
2023-05-04T09:09:33.561Z,101376.20
2023-05-04T09:14:44.020Z,101366.40
2023-05-04T09:20:03.454Z,101376.20
2023-05-04T09:25:17.974Z,101356.20
2023-05-04T09:30:28.270Z,101382.40
2023-05-04T09:35:43.280Z,101382.80
2023-05-04T09:40:53.435Z,101379.00
2023-05-04T09:46:03.526Z,101374.80
2023-05-04T09:51:16.452Z,101368.60
2023-05-04T09:56:43.632Z,101371.00
2023-05-04T10:01:54.394Z,101365.60
2023-05-04T10:07:06.714Z,101353.80
2023-05-04T10:12:17.055Z,101351.60
2023-05-04T10:18:00.730Z,101369.60
2023-05-04T10:23:46.154Z,101359.40
2023-05-04T10:29:13.762Z,101352.60
2023-05-04T10:34:31.978Z,101348.40
2023-05-04T10:39:42.480Z,101334.00
2023-05-04T10:44:59.302Z,101334.60
2023-05-04T10:50:14.876Z,101324.80
2023-05-04T10:55:26.338Z,101318.80
2023-05-04T11:00:44.994Z,101312.60
2023-05-04T11:05:56.099Z,101306.20
2023-05-04T11:11:11.483Z,101296.00
2023-05-04T11:16:28.837Z,101296.00
2023-05-04T11:21:38.585Z,101298.40
2023-05-04T11:26:54.686Z,101296.20
2023-05-04T11:32:04.473Z,101294.60
2023-05-04T11:37:14.470Z,101297.60
2023-05-04T11:42:24.807Z,101297.20
2023-05-04T11:47:34.886Z,101301.20
2023-05-04T11:52:45.349Z,101295.20
2023-05-04T11:58:02.540Z,101291.60
2023-05-04T12:03:15.056Z,101294.20
2023-05-04T12:08:35.168Z,101283.00
2023-05-04T12:13:47.712Z,101281.60
2023-05-04T12:19:07.814Z,101277.80
2023-05-04T12:24:17.763Z,101275.20
2023-05-04T12:29:27.419Z,101278.20
2023-05-04T12:34:38.549Z,101273.00
2023-05-04T12:39:49.391Z,101268.20
2023-05-04T12:44:59.127Z,101264.00
2023-05-04T12:50:11.701Z,101260.80
2023-05-04T12:55:24.660Z,101266.20
2023-05-04T13:00:36.516Z,101264.20
2023-05-04T13:05:46.804Z,101252.80
2023-05-04T13:10:56.446Z,101242.40
2023-05-04T13:16:06.622Z,101245.80
2023-05-04T13:21:17.895Z,101247.00
2023-05-04T13:26:27.660Z,101242.20
2023-05-04T13:31:37.593Z,101234.60
2023-05-04T13:36:48.253Z,101220.00
2023-05-04T13:41:57.897Z,101224.40
2023-05-04T13:47:07.890Z,101220.00
2023-05-04T13:52:17.599Z,101205.40
2023-05-04T13:57:28.906Z,101204.80
2023-05-04T14:02:38.948Z,101208.80
2023-05-04T14:07:48.701Z,101202.40
2023-05-04T14:12:58.716Z,101200.20
2023-05-04T14:18:09.199Z,101196.60
2023-05-04T14:23:18.842Z,101188.80
2023-05-04T14:28:28.577Z,101179.40
2023-05-04T14:33:38.435Z,101187.60
2023-05-04T14:38:49.065Z,101180.00
2023-05-04T14:43:58.805Z,101178.20
2023-05-04T14:49:08.936Z,101170.60
2023-05-04T14:54:18.981Z,101170.80
2023-05-04T14:59:29.058Z,101165.60
2023-05-04T15:04:39.059Z,101162.60
2023-05-04T15:09:48.632Z,101160.60
2023-05-04T15:14:58.387Z,101159.40
2023-05-04T15:20:10.119Z,101154.20
2023-05-04T15:25:23.715Z,101156.00
2023-05-04T15:30:33.439Z,101148.60
2023-05-04T15:35:43.610Z,101131.80
2023-05-04T15:40:53.781Z,101128.20
2023-05-04T15:46:03.384Z,101128.40
2023-05-04T15:51:15.778Z,101121.00
2023-05-04T15:56:25.415Z,101116.00
2023-05-04T16:01:35.220Z,101113.60
2023-05-04T16:06:44.987Z,101114.00
2023-05-04T16:11:54.540Z,101109.40
2023-05-04T16:17:04.948Z,101113.60
2023-05-04T16:22:15.286Z,101117.40
2023-05-04T16:27:27.236Z,101112.40
2023-05-04T16:32:37.322Z,101108.80
2023-05-04T16:37:47.087Z,101113.20
2023-05-04T16:42:56.761Z,101108.40
2023-05-04T16:48:07.165Z,101104.20
2023-05-04T16:53:17.137Z,101101.20
2023-05-04T16:58:27.164Z,101094.80
2023-05-04T17:03:36.888Z,101094.20
2023-05-04T17:08:46.663Z,101095.00
2023-05-04T17:13:56.708Z,101089.60
2023-05-04T17:19:08.181Z,101089.00
2023-05-04T17:24:20.017Z,101097.00
2023-05-04T17:29:29.696Z,101094.20
2023-05-04T17:34:39.726Z,101094.80
2023-05-04T17:39:49.530Z,101104.20
2023-05-04T17:44:59.524Z,101108.60
2023-05-04T17:50:10.772Z,101107.00
2023-05-04T17:55:20.494Z,101105.20
2023-05-04T18:00:30.788Z,101108.60
2023-05-04T18:05:41.493Z,101117.80
2023-05-04T18:10:51.101Z,101124.60
2023-05-04T18:16:01.048Z,101130.20
2023-05-04T18:21:11.410Z,101133.60
2023-05-04T18:26:25.172Z,101135.60
2023-05-04T18:31:34.972Z,101141.00
2023-05-04T18:36:45.560Z,101137.40
2023-05-04T18:41:56.476Z,101152.80
2023-05-04T18:47:06.188Z,101158.00
2023-05-04T18:52:15.924Z,101162.80
2023-05-04T18:57:26.451Z,101162.60
2023-05-04T19:02:38.139Z,101162.00
2023-05-04T19:07:48.076Z,101171.00
2023-05-04T19:12:58.148Z,101173.80
2023-05-04T19:18:07.927Z,101169.80
2023-05-04T19:23:17.915Z,101174.40
2023-05-04T19:28:27.582Z,101167.60
2023-05-04T19:33:47.996Z,101170.80
2023-05-04T19:38:58.396Z,101172.60
2023-05-04T19:44:10.441Z,101175.00
2023-05-04T19:49:22.257Z,101178.40
2023-05-04T19:54:32.308Z,101177.60
2023-05-04T19:59:42.654Z,101174.40
2023-05-04T20:04:54.147Z,101168.60
2023-05-04T20:10:04.051Z,101167.20
2023-05-04T20:15:14.283Z,101165.40
2023-05-04T20:20:24.234Z,101178.40
2023-05-04T20:25:33.952Z,101175.00
2023-05-04T20:30:43.671Z,101173.20
2023-05-04T20:35:53.339Z,101172.20
2023-05-04T20:41:08.786Z,101185.20
2023-05-04T20:46:18.573Z,101182.80
2023-05-04T20:51:28.685Z,101170.20
2023-05-04T20:56:38.313Z,101171.60
2023-05-04T21:01:47.999Z,101178.20
2023-05-04T21:06:58.224Z,101188.40
2023-05-04T21:12:08.472Z,101191.00
2023-05-04T21:17:18.154Z,101178.20
2023-05-04T21:22:28.648Z,101182.40
2023-05-04T21:27:38.303Z,101177.40
2023-05-04T21:32:48.168Z,101172.60
2023-05-04T21:37:57.953Z,101173.00
2023-05-04T21:43:07.820Z,101175.60
2023-05-04T21:48:17.516Z,101175.20
2023-05-04T21:53:27.192Z,101179.80
2023-05-04T21:58:37.443Z,101177.00
2023-05-04T22:03:47.659Z,101172.60
2023-05-04T22:08:57.636Z,101164.60
2023-05-04T22:14:07.646Z,101170.00
2023-05-04T22:19:17.385Z,101171.80
2023-05-04T22:24:27.317Z,101169.60
2023-05-04T22:29:38.945Z,101168.40
2023-05-04T22:34:49.105Z,101172.00
2023-05-04T22:40:00.603Z,101180.40
2023-05-04T22:45:13.380Z,101173.20
2023-05-04T22:50:23.215Z,101170.20
2023-05-04T22:55:33.375Z,101167.40
2023-05-04T23:00:43.475Z,101155.20
2023-05-04T23:05:54.203Z,101161.20
2023-05-04T23:11:03.947Z,101155.80
2023-05-04T23:16:14.446Z,101151.20
2023-05-04T23:21:24.301Z,101138.00
2023-05-04T23:26:34.252Z,101141.60
2023-05-04T23:31:43.894Z,101142.20
2023-05-04T23:36:54.244Z,101146.80
2023-05-04T23:42:04.032Z,101151.60
2023-05-04T23:47:13.980Z,101153.80
2023-05-04T23:52:23.787Z,101155.20
2023-05-04T23:57:33.888Z,101157.40
